Terminal Aerodrome Forecast
Issued by NWS

Home | Current Version | Previous Version | Text Only | Print | Product List | Glossary On
Versions: 1 2 3 4 5 6 7 8 9 10 11 12 13 14
000
FTUS44 KLZK 270520
TAFBPK
TAF
KBPK 270520Z 2706/2806 VRB05KT P6SM SCT250
     FM270900 VRB03KT 5SM BR SCT015
      TEMPO 2709/2713 2SM BR BKN010
     FM271500 12006KT P6SM FEW050 SCT250=

USA.gov is the U.S. government's official web portal to all federal, state and local government web resources and services.